createdAt,value
2023-05-13T00:00:16.108Z,11.63
2023-05-13T00:01:19.044Z,11.68
2023-05-13T00:02:21.120Z,11.71
2023-05-13T00:03:24.090Z,11.71
2023-05-13T00:04:26.003Z,11.70
2023-05-13T00:05:27.882Z,11.69
2023-05-13T00:06:29.778Z,11.68
2023-05-13T00:07:31.745Z,11.64
2023-05-13T00:08:33.695Z,11.62
2023-05-13T00:09:35.589Z,11.59
2023-05-13T00:10:37.465Z,11.56
2023-05-13T00:11:39.340Z,11.53
2023-05-13T00:12:41.258Z,11.54
2023-05-13T00:13:43.186Z,11.49
2023-05-13T00:14:45.091Z,11.47
2023-05-13T00:15:46.894Z,11.47
2023-05-13T00:16:48.844Z,11.48
2023-05-13T00:17:50.864Z,11.49
2023-05-13T00:18:52.921Z,11.46
2023-05-13T00:19:54.810Z,11.44
2023-05-13T00:20:56.701Z,11.42
2023-05-13T00:21:58.687Z,11.46
2023-05-13T00:23:00.757Z,11.49
2023-05-13T00:24:02.785Z,11.52
2023-05-13T00:25:04.682Z,11.55
2023-05-13T00:26:06.741Z,11.54
2023-05-13T00:27:08.965Z,11.49
2023-05-13T00:28:11.522Z,11.48
2023-05-13T00:29:13.732Z,11.47
2023-05-13T00:30:15.599Z,11.43
2023-05-13T00:31:17.488Z,11.40
2023-05-13T00:32:19.438Z,11.37
2023-05-13T00:33:21.316Z,11.39
2023-05-13T00:34:23.336Z,11.41
2023-05-13T00:35:25.152Z,11.42
2023-05-13T00:36:27.746Z,11.42
2023-05-13T00:37:29.620Z,11.45
2023-05-13T00:38:31.469Z,11.46
2023-05-13T00:39:33.309Z,11.44
2023-05-13T00:40:38.344Z,11.45
2023-05-13T00:41:40.311Z,11.44
2023-05-13T00:42:42.266Z,11.43
2023-05-13T00:43:44.137Z,11.45
2023-05-13T00:44:46.120Z,11.46
2023-05-13T00:45:48.073Z,11.46
2023-05-13T00:46:50.074Z,11.37
2023-05-13T00:47:52.111Z,11.33
2023-05-13T00:48:54.068Z,11.32
2023-05-13T00:49:56.062Z,11.37
2023-05-13T00:50:57.868Z,11.38
2023-05-13T00:51:59.998Z,11.37
2023-05-13T00:53:02.249Z,11.36
2023-05-13T00:54:04.814Z,11.38
2023-05-13T00:55:07.359Z,11.38
2023-05-13T00:56:09.287Z,11.43
2023-05-13T00:57:11.086Z,11.45
2023-05-13T00:58:13.413Z,11.46
2023-05-13T00:59:15.294Z,11.47
2023-05-13T01:00:17.379Z,11.45
2023-05-13T01:01:23.528Z,11.43
2023-05-13T01:02:35.122Z,11.40
2023-05-13T01:03:37.000Z,11.39
2023-05-13T01:04:44.605Z,11.38
2023-05-13T01:06:10.393Z,11.35
2023-05-13T01:07:12.230Z,11.36
2023-05-13T01:08:34.263Z,11.37
2023-05-13T01:09:46.179Z,11.40
2023-05-13T01:10:51.610Z,11.40
2023-05-13T01:11:55.667Z,11.38
2023-05-13T01:12:59.226Z,11.28
2023-05-13T01:14:12.679Z,11.27
2023-05-13T01:15:16.544Z,11.31
2023-05-13T01:16:25.755Z,11.32
2023-05-13T01:17:37.517Z,11.30
2023-05-13T01:18:47.972Z,11.30
2023-05-13T01:19:54.904Z,11.26
2023-05-13T01:20:57.104Z,11.26
2023-05-13T01:21:59.251Z,11.29
2023-05-13T01:23:01.276Z,11.30
2023-05-13T01:24:03.097Z,11.31
2023-05-13T01:25:05.076Z,11.32
2023-05-13T01:26:06.993Z,11.32
2023-05-13T01:27:09.148Z,11.34
2023-05-13T01:28:11.184Z,11.35
2023-05-13T01:29:13.205Z,11.37
2023-05-13T01:30:15.438Z,11.34
2023-05-13T01:31:18.018Z,11.34
2023-05-13T01:32:20.862Z,11.36
2023-05-13T01:33:23.785Z,11.30
2023-05-13T01:34:26.063Z,11.30
2023-05-13T01:35:28.849Z,11.31
2023-05-13T01:36:31.105Z,11.32
2023-05-13T01:37:33.367Z,11.29
2023-05-13T01:38:36.162Z,11.21
2023-05-13T01:39:38.845Z,11.20
2023-05-13T01:40:41.922Z,11.20
2023-05-13T01:41:45.080Z,11.20
2023-05-13T01:42:47.180Z,11.24
2023-05-13T01:43:49.012Z,11.26
2023-05-13T01:44:52.019Z,11.24
2023-05-13T01:45:53.934Z,11.17
2023-05-13T01:46:56.004Z,11.16
2023-05-13T01:47:58.028Z,11.20
2023-05-13T01:49:00.052Z,11.22
2023-05-13T01:50:01.928Z,11.19
2023-05-13T01:51:05.123Z,11.18
2023-05-13T01:52:07.128Z,11.21
2023-05-13T01:53:08.994Z,11.21
2023-05-13T01:54:10.987Z,11.23
2023-05-13T01:55:12.780Z,11.27
2023-05-13T01:56:14.548Z,11.20
2023-05-13T01:57:16.381Z,11.06
2023-05-13T01:58:18.227Z,11.07
2023-05-13T01:59:20.203Z,11.06
2023-05-13T02:00:22.446Z,11.07
2023-05-13T02:01:24.832Z,11.02
2023-05-13T02:02:27.277Z,11.01
2023-05-13T02:03:29.243Z,11.05
2023-05-13T02:04:31.373Z,11.09
2023-05-13T02:05:33.507Z,11.10
2023-05-13T02:06:35.341Z,11.12
2023-05-13T02:07:37.437Z,11.11
2023-05-13T02:08:39.264Z,11.13
2023-05-13T02:09:41.164Z,11.13
2023-05-13T02:10:43.100Z,11.13
2023-05-13T02:11:46.029Z,11.17
2023-05-13T02:12:48.326Z,11.23
2023-05-13T02:13:50.269Z,11.26
2023-05-13T02:14:52.100Z,11.28
2023-05-13T02:15:54.585Z,11.30
2023-05-13T02:16:56.477Z,11.32
2023-05-13T02:17:58.378Z,11.27
2023-05-13T02:19:00.330Z,11.20
2023-05-13T02:20:02.320Z,11.17
2023-05-13T02:21:04.170Z,11.16
2023-05-13T02:22:06.220Z,11.15
2023-05-13T02:23:08.321Z,11.18
2023-05-13T02:24:10.396Z,11.19
2023-05-13T02:25:12.334Z,11.19
2023-05-13T02:26:14.258Z,11.22
2023-05-13T02:27:16.839Z,11.26
2023-05-13T02:28:18.717Z,11.28
2023-05-13T02:29:20.556Z,11.30
2023-05-13T02:30:27.215Z,11.31
2023-05-13T02:31:29.067Z,11.29
2023-05-13T02:32:31.047Z,11.20
2023-05-13T02:33:32.912Z,11.19
2023-05-13T02:34:34.709Z,11.22
2023-05-13T02:35:36.575Z,11.25
2023-05-13T02:36:39.177Z,11.28
2023-05-13T02:37:41.066Z,11.30
2023-05-13T02:38:42.954Z,11.28
2023-05-13T02:39:44.771Z,11.31
2023-05-13T02:40:46.696Z,11.29
2023-05-13T02:41:48.732Z,11.27
2023-05-13T02:42:51.208Z,11.29
2023-05-13T02:43:53.076Z,11.31
2023-05-13T02:44:55.048Z,11.32
2023-05-13T02:45:56.932Z,11.32
2023-05-13T02:46:58.897Z,11.34
2023-05-13T02:48:00.804Z,11.29
2023-05-13T02:49:02.867Z,11.27
2023-05-13T02:50:06.487Z,11.27
2023-05-13T02:51:09.845Z,11.31
2023-05-13T02:52:11.707Z,11.31
2023-05-13T02:53:13.557Z,11.30
2023-05-13T02:54:15.567Z,11.23
2023-05-13T02:55:17.559Z,11.19
2023-05-13T02:56:19.640Z,11.19
2023-05-13T02:57:21.587Z,11.17
2023-05-13T02:58:23.441Z,11.15
2023-05-13T02:59:25.860Z,11.18
2023-05-13T03:00:27.700Z,11.18
2023-05-13T03:01:29.709Z,11.08
2023-05-13T03:02:32.454Z,10.99
2023-05-13T03:03:34.470Z,10.98
2023-05-13T03:04:36.459Z,11.00
2023-05-13T03:05:38.291Z,11.00
2023-05-13T03:06:40.124Z,10.98
2023-05-13T03:07:42.064Z,10.95
2023-05-13T03:08:43.958Z,10.90
2023-05-13T03:09:45.965Z,10.87
2023-05-13T03:10:47.809Z,10.85
2023-05-13T03:11:49.692Z,10.87
2023-05-13T03:12:51.703Z,10.85
2023-05-13T03:13:53.657Z,10.85
2023-05-13T03:14:55.601Z,10.90
2023-05-13T03:15:57.564Z,10.93
2023-05-13T03:16:59.444Z,10.94
2023-05-13T03:18:01.586Z,10.98
2023-05-13T03:19:03.630Z,10.96
2023-05-13T03:20:05.856Z,10.96
2023-05-13T03:21:07.752Z,10.96
2023-05-13T03:22:09.978Z,10.93
2023-05-13T03:23:11.836Z,10.97
2023-05-13T03:24:13.666Z,10.95
2023-05-13T03:25:15.675Z,10.94
2023-05-13T03:26:17.559Z,10.95
2023-05-13T03:27:19.650Z,10.88
2023-05-13T03:28:21.669Z,10.89
2023-05-13T03:29:23.649Z,10.93
2023-05-13T03:30:25.589Z,10.95
2023-05-13T03:31:27.541Z,10.98
2023-05-13T03:32:31.847Z,10.94
2023-05-13T03:33:33.717Z,10.94
2023-05-13T03:34:36.697Z,10.94
2023-05-13T03:35:39.315Z,10.96
2023-05-13T03:36:41.354Z,10.98
2023-05-13T03:37:43.194Z,10.99
2023-05-13T03:38:45.031Z,10.98
2023-05-13T03:39:46.890Z,10.99
2023-05-13T03:40:48.748Z,10.98
2023-05-13T03:41:50.590Z,10.99
2023-05-13T03:42:52.463Z,10.99
2023-05-13T03:43:54.752Z,11.03
2023-05-13T03:44:57.503Z,11.02
2023-05-13T03:45:59.398Z,10.95
2023-05-13T03:47:01.389Z,10.90
2023-05-13T03:48:03.404Z,10.88
2023-05-13T03:49:05.320Z,10.84
2023-05-13T03:50:07.670Z,10.80
2023-05-13T03:51:09.488Z,10.75
2023-05-13T03:52:11.339Z,10.73
2023-05-13T03:53:13.236Z,10.77
2023-05-13T03:54:15.085Z,10.77
2023-05-13T03:55:17.028Z,10.78
2023-05-13T03:56:18.814Z,10.79
2023-05-13T03:57:20.702Z,10.73
2023-05-13T03:58:23.268Z,10.71
2023-05-13T03:59:25.191Z,10.75
2023-05-13T04:00:27.084Z,10.77
2023-05-13T04:01:30.145Z,10.78
2023-05-13T04:02:32.152Z,10.80
2023-05-13T04:03:34.840Z,10.79
2023-05-13T04:04:36.698Z,10.80
2023-05-13T04:05:38.699Z,10.84
2023-05-13T04:06:40.579Z,10.84
2023-05-13T04:07:42.485Z,10.88
2023-05-13T04:08:44.817Z,10.87
2023-05-13T04:09:46.631Z,10.88
2023-05-13T04:10:48.708Z,10.89
2023-05-13T04:11:50.705Z,10.87
2023-05-13T04:12:52.552Z,10.87
2023-05-13T04:13:54.370Z,10.89
2023-05-13T04:14:56.289Z,10.89
2023-05-13T04:15:58.408Z,10.91
2023-05-13T04:17:00.387Z,10.90
2023-05-13T04:18:02.387Z,10.88
2023-05-13T04:19:04.442Z,10.84
2023-05-13T04:20:06.858Z,10.80
2023-05-13T04:21:09.472Z,10.78
2023-05-13T04:22:11.334Z,10.73
2023-05-13T04:23:13.317Z,10.71
2023-05-13T04:24:15.475Z,10.74
2023-05-13T04:25:17.347Z,10.78
2023-05-13T04:26:19.260Z,10.79
2023-05-13T04:27:21.209Z,10.80
2023-05-13T04:28:23.103Z,10.83
2023-05-13T04:29:24.949Z,10.81
2023-05-13T04:30:26.813Z,10.79
2023-05-13T04:31:28.770Z,10.83
2023-05-13T04:32:30.666Z,10.86
2023-05-13T04:33:32.540Z,10.85
2023-05-13T04:34:34.368Z,10.85
2023-05-13T04:35:36.245Z,10.86
2023-05-13T04:36:38.125Z,10.88
2023-05-13T04:37:39.998Z,10.84
2023-05-13T04:38:41.875Z,10.86
2023-05-13T04:39:46.650Z,10.78
2023-05-13T04:40:48.616Z,10.67
2023-05-13T04:41:50.667Z,10.57
2023-05-13T04:42:55.337Z,10.55
2023-05-13T04:43:57.169Z,10.53
2023-05-13T04:44:58.966Z,10.47
2023-05-13T04:46:00.840Z,10.47
2023-05-13T04:47:02.862Z,10.49
2023-05-13T04:48:04.717Z,10.56
2023-05-13T04:49:06.813Z,10.61
2023-05-13T04:50:09.280Z,10.66
2023-05-13T04:51:11.678Z,10.70
2023-05-13T04:52:14.289Z,10.70
2023-05-13T04:53:16.352Z,10.72
2023-05-13T04:54:18.203Z,10.71
2023-05-13T04:55:20.073Z,10.75
2023-05-13T04:56:22.108Z,10.76
2023-05-13T04:57:24.446Z,10.77
2023-05-13T04:58:27.218Z,10.76
2023-05-13T04:59:29.147Z,10.77
2023-05-13T05:00:31.081Z,10.77
2023-05-13T05:01:32.986Z,10.78
2023-05-13T05:02:34.963Z,10.77
2023-05-13T05:03:36.924Z,10.82
2023-05-13T05:04:38.874Z,10.85
2023-05-13T05:05:40.705Z,10.86
2023-05-13T05:06:42.613Z,10.87
2023-05-13T05:07:44.533Z,10.87
2023-05-13T05:08:46.412Z,10.87
2023-05-13T05:09:48.361Z,10.88
2023-05-13T05:10:50.199Z,10.95
2023-05-13T05:11:52.048Z,11.01
2023-05-13T05:12:53.994Z,11.05
2023-05-13T05:13:55.902Z,11.06
2023-05-13T05:14:57.789Z,11.04
2023-05-13T05:15:59.708Z,11.05
2023-05-13T05:17:01.581Z,11.07
2023-05-13T05:18:03.653Z,11.08
2023-05-13T05:19:05.751Z,11.05
2023-05-13T05:20:07.977Z,11.09
2023-05-13T05:21:10.638Z,11.04
2023-05-13T05:22:12.527Z,10.95
2023-05-13T05:23:14.602Z,10.98
2023-05-13T05:24:16.466Z,10.96
2023-05-13T05:25:18.889Z,10.97
2023-05-13T05:26:20.999Z,10.99
2023-05-13T05:27:22.934Z,10.97
2023-05-13T05:28:24.804Z,10.96
2023-05-13T05:29:26.730Z,10.82
2023-05-13T05:30:28.616Z,10.77
2023-05-13T05:31:31.269Z,10.80
2023-05-13T05:32:34.227Z,10.82
2023-05-13T05:33:36.544Z,10.89
2023-05-13T05:34:38.756Z,10.97
2023-05-13T05:35:40.641Z,11.01
2023-05-13T05:36:42.498Z,11.05
2023-05-13T05:37:44.375Z,11.07
2023-05-13T05:38:47.642Z,11.14
2023-05-13T05:39:49.606Z,11.17
2023-05-13T05:40:51.451Z,11.16
2023-05-13T05:41:53.544Z,11.20
2023-05-13T05:42:55.440Z,11.26
2023-05-13T05:43:57.293Z,11.26
2023-05-13T05:44:59.287Z,11.21
2023-05-13T05:46:01.159Z,11.21
2023-05-13T05:47:03.000Z,11.20
2023-05-13T05:48:06.054Z,11.21
2023-05-13T05:49:08.897Z,11.17
2023-05-13T05:50:11.668Z,11.15
2023-05-13T05:51:13.509Z,11.19
2023-05-13T05:52:15.346Z,11.22
2023-05-13T05:53:17.166Z,11.25
2023-05-13T05:54:19.101Z,11.27
2023-05-13T05:55:21.549Z,11.28
2023-05-13T05:56:23.392Z,11.33
2023-05-13T05:57:25.295Z,11.40
2023-05-13T05:58:29.728Z,11.46
2023-05-13T05:59:31.644Z,11.48
2023-05-13T06:00:33.779Z,11.48
2023-05-13T06:01:37.122Z,11.50
2023-05-13T06:02:39.328Z,11.54
2023-05-13T06:03:41.432Z,11.53
2023-05-13T06:04:43.569Z,11.56
2023-05-13T06:05:45.705Z,11.55
2023-05-13T06:06:47.622Z,11.55
2023-05-13T06:07:49.683Z,11.56
2023-05-13T06:08:51.518Z,11.56
2023-05-13T06:09:53.405Z,11.58
2023-05-13T06:10:55.228Z,11.61
2023-05-13T06:11:57.088Z,11.60
2023-05-13T06:12:59.103Z,11.55
2023-05-13T06:14:01.077Z,11.55
2023-05-13T06:15:03.029Z,11.62
2023-05-13T06:16:05.045Z,11.68
2023-05-13T06:17:06.955Z,11.65
2023-05-13T06:18:08.925Z,11.59
2023-05-13T06:19:10.909Z,11.62
2023-05-13T06:20:12.866Z,11.65
2023-05-13T06:21:14.810Z,11.71
2023-05-13T06:22:16.808Z,11.72
2023-05-13T06:23:18.722Z,11.71
2023-05-13T06:24:20.591Z,11.73
2023-05-13T06:25:22.469Z,11.76
2023-05-13T06:26:24.365Z,11.81
2023-05-13T06:27:26.199Z,11.86
2023-05-13T06:28:28.170Z,11.90
2023-05-13T06:29:30.054Z,11.90
2023-05-13T06:30:32.088Z,11.92
2023-05-13T06:31:33.951Z,11.91
2023-05-13T06:32:35.894Z,11.87
2023-05-13T06:33:37.896Z,11.85
2023-05-13T06:34:46.190Z,11.86
2023-05-13T06:35:49.882Z,11.87
2023-05-13T06:36:51.754Z,11.88
2023-05-13T06:37:54.182Z,11.90
2023-05-13T06:38:56.134Z,11.87
2023-05-13T06:39:58.812Z,11.84
2023-05-13T06:41:00.708Z,11.86
2023-05-13T06:42:02.626Z,11.89
2023-05-13T06:43:04.522Z,11.90
2023-05-13T06:44:06.990Z,11.92
2023-05-13T06:45:09.114Z,11.93
2023-05-13T06:46:10.934Z,11.95
2023-05-13T06:47:16.466Z,11.97
2023-05-13T06:48:18.520Z,11.95
2023-05-13T06:49:20.504Z,11.98
2023-05-13T06:50:22.645Z,12.04
2023-05-13T06:51:26.470Z,12.11
2023-05-13T06:52:28.384Z,12.13
2023-05-13T06:53:30.197Z,12.17
2023-05-13T06:54:32.482Z,12.19
2023-05-13T06:55:36.213Z,12.21
2023-05-13T06:56:38.133Z,12.27
2023-05-13T06:57:43.539Z,12.31
2023-05-13T06:58:45.736Z,12.37
2023-05-13T06:59:47.604Z,12.40
2023-05-13T07:00:49.733Z,12.43
2023-05-13T07:01:51.590Z,12.46
2023-05-13T07:02:53.421Z,12.47
2023-05-13T07:03:55.382Z,12.50
2023-05-13T07:04:57.289Z,12.53
2023-05-13T07:05:59.110Z,12.53
2023-05-13T07:07:00.989Z,12.57
2023-05-13T07:08:07.166Z,12.60
2023-05-13T07:09:11.665Z,12.63
2023-05-13T07:10:13.540Z,12.65
2023-05-13T07:11:15.543Z,12.69
2023-05-13T07:12:18.253Z,12.73
2023-05-13T07:13:21.218Z,12.75
2023-05-13T07:14:25.390Z,12.78
2023-05-13T07:15:27.371Z,12.80
2023-05-13T07:16:29.253Z,12.80
2023-05-13T07:17:31.707Z,12.84
2023-05-13T07:18:33.727Z,12.90
2023-05-13T07:19:35.766Z,12.96
2023-05-13T07:20:38.252Z,12.99
2023-05-13T07:21:40.108Z,13.04
2023-05-13T07:22:42.055Z,13.06
2023-05-13T07:23:44.809Z,13.12
2023-05-13T07:24:48.773Z,13.17
2023-05-13T07:25:52.846Z,13.19
2023-05-13T07:26:54.816Z,13.19
2023-05-13T07:27:56.656Z,13.21
2023-05-13T07:28:58.917Z,13.24
2023-05-13T07:30:00.780Z,13.24
2023-05-13T07:31:04.709Z,13.28
2023-05-13T07:32:06.983Z,13.34
2023-05-13T07:33:08.934Z,13.40
2023-05-13T07:34:11.031Z,13.43
2023-05-13T07:35:13.003Z,13.48
2023-05-13T07:36:14.899Z,13.52
2023-05-13T07:37:16.733Z,13.54
2023-05-13T07:38:18.792Z,13.56
2023-05-13T07:39:20.679Z,13.57
2023-05-13T07:40:22.923Z,13.57
2023-05-13T07:41:25.243Z,13.58
2023-05-13T07:42:28.314Z,13.59
2023-05-13T07:43:30.266Z,13.60
2023-05-13T07:44:32.110Z,13.62
2023-05-13T07:45:34.584Z,13.64
2023-05-13T07:46:36.480Z,13.63
2023-05-13T07:47:38.559Z,13.66
2023-05-13T07:48:40.493Z,13.67
2023-05-13T07:49:42.341Z,13.69
2023-05-13T07:50:47.402Z,13.70
2023-05-13T07:51:49.384Z,13.72
2023-05-13T07:52:52.128Z,13.72
2023-05-13T07:53:54.055Z,13.73
2023-05-13T07:54:55.933Z,13.74
2023-05-13T07:55:57.954Z,13.75
2023-05-13T07:56:59.818Z,13.78
2023-05-13T07:58:01.775Z,13.80
2023-05-13T07:59:04.138Z,13.82
2023-05-13T08:00:06.647Z,13.83
2023-05-13T08:01:08.546Z,13.85
2023-05-13T08:02:10.449Z,13.88
2023-05-13T08:03:12.812Z,13.92
2023-05-13T08:04:14.880Z,13.94
2023-05-13T08:05:16.879Z,13.98
2023-05-13T08:06:18.759Z,14.04
2023-05-13T08:07:20.695Z,14.07
2023-05-13T08:08:22.611Z,14.12
2023-05-13T08:09:24.939Z,14.16
2023-05-13T08:10:26.833Z,14.22
2023-05-13T08:11:29.231Z,14.25
2023-05-13T08:12:31.197Z,14.28
2023-05-13T08:13:33.011Z,14.33
2023-05-13T08:14:34.938Z,14.39
2023-05-13T08:15:37.408Z,14.43
2023-05-13T08:16:39.326Z,14.48
2023-05-13T08:17:41.273Z,14.53
2023-05-13T08:18:43.138Z,14.57
2023-05-13T08:19:45.032Z,14.60
2023-05-13T08:20:46.935Z,14.67
2023-05-13T08:21:48.880Z,14.71
2023-05-13T08:22:50.933Z,14.78
2023-05-13T08:23:52.811Z,14.83
2023-05-13T08:24:54.869Z,14.87
2023-05-13T08:25:56.854Z,14.92
2023-05-13T08:26:58.790Z,14.97
2023-05-13T08:28:00.665Z,15.03
2023-05-13T08:29:02.484Z,15.10
2023-05-13T08:30:05.148Z,15.13
2023-05-13T08:31:06.994Z,15.18
2023-05-13T08:32:08.938Z,15.24
2023-05-13T08:33:11.869Z,15.29
2023-05-13T08:34:13.793Z,15.32
2023-05-13T08:35:15.646Z,15.39
2023-05-13T08:36:17.576Z,15.42
2023-05-13T08:37:19.467Z,15.45
2023-05-13T08:38:21.429Z,15.50
2023-05-13T08:39:23.489Z,15.53
2023-05-13T08:40:25.364Z,15.57
2023-05-13T08:41:27.271Z,15.61
2023-05-13T08:42:29.268Z,15.67
2023-05-13T08:43:32.860Z,15.77
2023-05-13T08:44:39.996Z,15.90
2023-05-13T08:45:42.345Z,15.98
2023-05-13T08:46:51.245Z,16.05
2023-05-13T08:47:57.181Z,16.12
2023-05-13T08:48:59.400Z,16.14
2023-05-13T08:50:01.543Z,16.17
2023-05-13T08:51:03.614Z,16.19
2023-05-13T08:52:05.845Z,16.26
2023-05-13T08:53:08.008Z,16.36
2023-05-13T08:54:11.103Z,16.46
2023-05-13T08:55:13.581Z,16.58
2023-05-13T08:56:15.451Z,16.72
2023-05-13T08:57:17.290Z,16.82
2023-05-13T08:58:19.347Z,16.90
2023-05-13T08:59:21.186Z,16.96
2023-05-13T09:00:23.150Z,17.00
2023-05-13T09:01:26.831Z,17.06
2023-05-13T09:02:30.029Z,17.08
2023-05-13T09:03:31.983Z,17.16
2023-05-13T09:04:37.903Z,17.20
2023-05-13T09:05:39.999Z,17.27
2023-05-13T09:06:41.904Z,17.34
2023-05-13T09:07:43.819Z,17.39
2023-05-13T09:08:45.866Z,17.40
2023-05-13T09:09:47.833Z,17.40
2023-05-13T09:10:49.710Z,17.42
2023-05-13T09:11:51.576Z,17.49
2023-05-13T09:12:54.650Z,17.55
2023-05-13T09:13:58.122Z,17.66
2023-05-13T09:15:00.042Z,17.75
2023-05-13T09:16:02.624Z,17.90
2023-05-13T09:17:04.833Z,17.98
2023-05-13T09:18:07.840Z,18.04
2023-05-13T09:19:11.670Z,18.08
2023-05-13T09:20:15.710Z,18.11
2023-05-13T09:21:43.678Z,18.10
2023-05-13T09:22:54.702Z,18.02
2023-05-13T09:24:02.784Z,17.97
2023-05-13T09:25:04.898Z,17.95
2023-05-13T09:26:09.361Z,17.91
2023-05-13T09:27:11.244Z,17.85
2023-05-13T09:28:14.968Z,17.78
2023-05-13T09:29:24.388Z,17.77
2023-05-13T09:30:27.516Z,17.71
2023-05-13T09:31:35.317Z,17.67
2023-05-13T09:32:38.058Z,17.64
2023-05-13T09:33:52.291Z,17.65
2023-05-13T09:34:54.108Z,17.72
2023-05-13T09:35:55.978Z,17.79
2023-05-13T09:37:05.321Z,17.87
2023-05-13T09:38:17.243Z,17.97
2023-05-13T09:39:19.097Z,18.06
2023-05-13T09:40:21.310Z,18.12
2023-05-13T09:41:25.777Z,18.17
2023-05-13T09:42:27.749Z,18.16
2023-05-13T09:43:32.718Z,18.15
2023-05-13T09:44:34.646Z,18.12
2023-05-13T09:45:36.411Z,18.09
2023-05-13T09:46:38.284Z,18.05
2023-05-13T09:47:41.159Z,18.03
2023-05-13T09:48:43.811Z,18.04
2023-05-13T09:49:46.265Z,18.04
2023-05-13T09:50:52.638Z,18.03
2023-05-13T09:51:54.457Z,17.99
2023-05-13T09:52:56.360Z,17.92
2023-05-13T09:54:07.609Z,17.89
2023-05-13T09:55:09.784Z,17.91
2023-05-13T09:56:11.651Z,17.91
2023-05-13T09:57:13.917Z,17.91
2023-05-13T09:58:16.445Z,17.89
2023-05-13T09:59:18.429Z,17.87
2023-05-13T10:00:31.515Z,17.86
2023-05-13T10:01:35.785Z,17.87
2023-05-13T10:02:38.723Z,17.86
2023-05-13T10:03:40.738Z,17.86
2023-05-13T10:04:43.545Z,17.87
2023-05-13T10:05:45.368Z,17.90
2023-05-13T10:06:47.991Z,17.91
2023-05-13T10:07:49.959Z,17.93
2023-05-13T10:08:52.884Z,17.96
2023-05-13T10:09:58.919Z,17.97
2023-05-13T10:11:00.953Z,17.97
2023-05-13T10:12:03.838Z,17.99
2023-05-13T10:13:07.272Z,18.00
2023-05-13T10:14:09.337Z,17.98
2023-05-13T10:15:11.369Z,17.99
2023-05-13T10:16:13.472Z,18.01
2023-05-13T10:17:15.585Z,18.02
2023-05-13T10:18:18.587Z,18.02
2023-05-13T10:19:21.595Z,18.01
2023-05-13T10:20:24.930Z,17.97
2023-05-13T10:21:29.870Z,17.95
2023-05-13T10:22:32.800Z,17.94
2023-05-13T10:23:34.983Z,17.97
2023-05-13T10:24:38.781Z,18.01
2023-05-13T10:25:42.310Z,18.16
2023-05-13T10:26:44.558Z,18.22
2023-05-13T10:27:46.803Z,18.23
2023-05-13T10:28:49.966Z,18.22
2023-05-13T10:29:54.734Z,18.19
2023-05-13T10:30:57.420Z,18.18
2023-05-13T10:32:00.418Z,18.16
2023-05-13T10:33:03.392Z,18.14
2023-05-13T10:34:05.368Z,18.17
2023-05-13T10:35:10.979Z,18.18
2023-05-13T10:36:12.856Z,18.19
2023-05-13T10:37:24.264Z,18.21
2023-05-13T10:38:32.284Z,18.24
2023-05-13T10:39:42.232Z,18.28
2023-05-13T10:41:02.562Z,18.31
2023-05-13T10:42:19.716Z,18.54
2023-05-13T10:43:22.266Z,18.96
2023-05-13T10:44:24.190Z,19.33
2023-05-13T10:45:27.443Z,19.49
2023-05-13T10:46:29.520Z,19.54
2023-05-13T10:47:33.664Z,19.58
2023-05-13T10:48:41.121Z,19.53
2023-05-13T10:49:50.300Z,19.46
2023-05-13T10:51:01.850Z,19.38
2023-05-13T10:52:07.537Z,19.33
2023-05-13T10:53:13.020Z,19.32
2023-05-13T10:54:22.049Z,19.31
2023-05-13T10:55:24.213Z,19.48
2023-05-13T10:56:28.094Z,19.45
2023-05-13T10:57:36.185Z,19.43
2023-05-13T10:58:38.780Z,19.62
2023-05-13T11:00:00.716Z,19.55
2023-05-13T11:01:14.999Z,19.41
2023-05-13T11:02:24.051Z,19.33
2023-05-13T11:03:30.233Z,19.23
2023-05-13T11:04:32.188Z,19.18
2023-05-13T11:05:34.048Z,19.14
2023-05-13T11:06:37.237Z,19.10
2023-05-13T11:07:39.908Z,19.06
2023-05-13T11:08:46.176Z,19.04
2023-05-13T11:09:51.788Z,19.02
2023-05-13T11:10:56.800Z,19.03
2023-05-13T11:11:59.407Z,19.04
2023-05-13T11:13:09.560Z,19.13
2023-05-13T11:14:18.168Z,19.55
2023-05-13T11:15:23.036Z,19.84
2023-05-13T11:16:24.954Z,20.03
2023-05-13T11:17:26.834Z,20.35
2023-05-13T11:18:31.931Z,20.40
2023-05-13T11:19:36.019Z,20.36
2023-05-13T11:20:51.523Z,20.34
2023-05-13T11:21:58.230Z,20.27
2023-05-13T11:23:01.246Z,20.13
2023-05-13T11:24:04.510Z,20.02
2023-05-13T11:25:08.519Z,19.92
2023-05-13T11:26:12.657Z,19.84
2023-05-13T11:27:16.258Z,19.74
2023-05-13T11:28:20.965Z,19.64
2023-05-13T11:29:32.682Z,19.52
2023-05-13T11:30:34.668Z,19.49
2023-05-13T11:31:47.776Z,19.43
2023-05-13T11:32:59.714Z,19.39
2023-05-13T11:34:13.903Z,19.38
2023-05-13T11:35:20.177Z,19.38
2023-05-13T11:36:22.179Z,19.39
2023-05-13T11:37:24.034Z,19.43
2023-05-13T11:38:25.955Z,19.73
2023-05-13T11:39:27.929Z,20.14
2023-05-13T11:40:30.997Z,20.44
2023-05-13T11:41:33.703Z,20.67
2023-05-13T11:42:35.714Z,20.95
2023-05-13T11:43:39.581Z,20.91
2023-05-13T11:44:47.659Z,20.80
2023-05-13T11:45:50.687Z,20.71
2023-05-13T11:46:54.555Z,20.63
2023-05-13T11:47:56.819Z,20.57
2023-05-13T11:48:58.661Z,20.51
2023-05-13T11:50:00.912Z,20.41
2023-05-13T11:51:02.780Z,20.30
2023-05-13T11:52:06.258Z,20.22
2023-05-13T11:53:08.341Z,20.15
2023-05-13T11:54:11.994Z,20.13
2023-05-13T11:55:24.672Z,20.12
2023-05-13T11:56:27.216Z,20.07
2023-05-13T11:57:32.980Z,20.04
2023-05-13T11:58:34.840Z,20.13
2023-05-13T11:59:47.665Z,20.15
2023-05-13T12:00:50.313Z,20.22
2023-05-13T12:02:04.617Z,20.25
2023-05-13T12:03:12.219Z,20.19
2023-05-13T12:04:14.126Z,20.12
2023-05-13T12:05:16.075Z,19.99
2023-05-13T12:06:18.490Z,19.98
2023-05-13T12:07:27.489Z,19.87
2023-05-13T12:08:30.492Z,19.78
2023-05-13T12:09:32.305Z,19.94
2023-05-13T12:10:34.249Z,20.09
2023-05-13T12:11:36.377Z,20.28
2023-05-13T12:12:38.976Z,20.32
2023-05-13T12:13:43.646Z,20.47
2023-05-13T12:14:46.587Z,20.55
2023-05-13T12:15:50.255Z,20.64
2023-05-13T12:16:52.183Z,20.74
2023-05-13T12:17:55.025Z,20.76
2023-05-13T12:19:00.440Z,20.68
2023-05-13T12:20:08.514Z,20.61
2023-05-13T12:21:17.771Z,20.51
2023-05-13T12:22:22.247Z,20.51
2023-05-13T12:23:24.117Z,20.44
2023-05-13T12:24:26.000Z,20.40
2023-05-13T12:25:37.133Z,20.35
2023-05-13T12:26:39.912Z,20.26
2023-05-13T12:27:41.843Z,20.27
2023-05-13T12:28:43.708Z,20.31
2023-05-13T12:29:45.530Z,20.57
2023-05-13T12:30:51.735Z,20.85
2023-05-13T12:32:04.109Z,21.20
2023-05-13T12:33:06.571Z,21.66
2023-05-13T12:34:08.583Z,21.78
2023-05-13T12:35:14.948Z,21.85
2023-05-13T12:36:26.384Z,22.23
2023-05-13T12:37:28.348Z,22.67
2023-05-13T12:38:30.266Z,22.90
2023-05-13T12:39:32.099Z,23.12
2023-05-13T12:40:33.981Z,23.21
2023-05-13T12:41:37.257Z,23.36
2023-05-13T12:42:39.232Z,23.01
2023-05-13T12:43:41.205Z,22.84
2023-05-13T12:44:44.780Z,22.68
2023-05-13T12:45:48.209Z,22.59
2023-05-13T12:46:51.585Z,22.50
2023-05-13T12:47:53.638Z,22.39
2023-05-13T12:48:59.758Z,22.21
2023-05-13T12:50:02.766Z,21.94
2023-05-13T12:51:04.751Z,21.62
2023-05-13T12:52:06.717Z,21.54
2023-05-13T12:53:08.671Z,21.62
2023-05-13T12:54:13.660Z,21.89
2023-05-13T12:55:15.560Z,21.88
2023-05-13T12:56:17.496Z,22.07
2023-05-13T12:57:20.792Z,22.50
2023-05-13T12:58:22.805Z,22.85
2023-05-13T12:59:24.924Z,23.26
2023-05-13T13:00:26.954Z,23.17
2023-05-13T13:01:28.882Z,22.87
2023-05-13T13:02:30.974Z,22.79
2023-05-13T13:03:32.965Z,22.90
2023-05-13T13:04:34.894Z,23.15
2023-05-13T13:05:36.875Z,23.53
2023-05-13T13:06:38.695Z,23.54
2023-05-13T13:07:42.512Z,23.44
2023-05-13T13:08:44.353Z,23.48
2023-05-13T13:09:46.328Z,23.44
2023-05-13T13:10:48.155Z,23.19
2023-05-13T13:11:50.124Z,23.00
2023-05-13T13:12:52.626Z,22.90
2023-05-13T13:13:54.470Z,22.69
2023-05-13T13:14:56.990Z,22.50
2023-05-13T13:15:59.333Z,22.24
2023-05-13T13:17:01.236Z,21.93
2023-05-13T13:18:03.086Z,21.73
2023-05-13T13:19:05.111Z,21.52
2023-05-13T13:20:07.633Z,21.28
2023-05-13T13:21:10.512Z,21.13
2023-05-13T13:22:12.402Z,21.02
2023-05-13T13:23:14.426Z,21.00
2023-05-13T13:24:16.330Z,21.27
2023-05-13T13:25:18.219Z,21.60
2023-05-13T13:26:20.053Z,22.08
2023-05-13T13:27:21.850Z,22.60
2023-05-13T13:28:23.786Z,22.85
2023-05-13T13:29:25.815Z,23.05
2023-05-13T13:30:27.687Z,23.35
2023-05-13T13:31:30.060Z,23.36